Time;durP1;ratioP1;P1;durP2;ratioP2;P2;SDS_P1;SDS_P2;PMS_P1;PMS_P2;Temp;Humidity;BMP_temperature;BMP_pressure;BME280_temperature;BME280_humidity;BME280_pressure;Samples;Min_cycle;Max_cycle;Signal;HPM_P1;HPM_P2
2022/05/27 00:00:15;;;;;;;1.20;1.10;;;21.00;42.70;;;;;;5020540;28;20506;-58
2022/05/27 00:02:41;;;;;;;1.33;1.23;;;21.00;42.70;;;;;;5019130;28;20448;-58
2022/05/27 00:05:07;;;;;;;1.20;1.10;;;21.00;42.70;;;;;;5020833;28;20444;-58
2022/05/27 00:07:33;;;;;;;1.43;1.33;;;20.90;42.60;;;;;;5018937;28;20227;-59
2022/05/27 00:09:59;;;;;;;1.20;1.10;;;21.00;42.70;;;;;;5021941;28;20459;-58
2022/05/27 00:12:24;;;;;;;1.20;1.00;;;20.90;42.60;;;;;;5021281;28;20375;-58
2022/05/27 00:14:50;;;;;;;1.30;1.10;;;21.00;42.70;;;;;;5017798;28;20227;-58
2022/05/27 00:17:15;;;;;;;1.43;1.33;;;20.90;42.50;;;;;;5018982;28;20215;-57
2022/05/27 00:19:41;;;;;;;1.30;1.20;;;20.90;42.60;;;;;;5021280;28;20349;-58
2022/05/27 00:22:08;;;;;;;1.10;1.00;;;21.00;42.60;;;;;;5017757;28;20231;-58
2022/05/27 00:24:36;;;;;;;1.33;1.23;;;20.90;42.50;;;;;;5020062;28;20215;-58
2022/05/27 00:27:02;;;;;;;1.07;1.00;;;20.90;42.40;;;;;;5021804;28;20460;-58
2022/05/27 00:29:27;;;;;;;1.27;1.17;;;20.90;42.40;;;;;;5022887;28;21445;-59
2022/05/27 00:31:53;;;;;;;1.50;1.40;;;20.90;42.40;;;;;;5025238;28;20759;-58
2022/05/27 00:34:18;;;;;;;1.47;1.37;;;20.90;42.50;;;;;;5026921;28;20612;-58
2022/05/27 00:36:44;;;;;;;1.30;1.20;;;21.00;42.50;;;;;;5021949;28;20215;-58
2022/05/27 00:39:09;;;;;;;1.30;1.20;;;20.90;42.40;;;;;;5026859;28;20223;-58
2022/05/27 00:41:35;;;;;;;1.10;1.10;;;21.00;42.50;;;;;;5029109;28;20230;-58
2022/05/27 00:44:01;;;;;;;1.30;1.20;;;21.00;42.50;;;;;;5025579;28;20310;-58
2022/05/27 00:46:33;;;;;;;0.93;0.93;;;21.00;42.50;;;;;;5024559;28;20686;-58
2022/05/27 00:49:16;;;;;;;1.20;1.10;;;20.90;42.50;;;;;;5022346;28;20223;-58
2022/05/27 00:51:49;;;;;;;0.90;0.90;;;20.90;42.40;;;;;;5022309;28;21031;-58
2022/05/27 00:54:19;;;;;;;1.20;1.10;;;20.90;42.40;;;;;;5019101;28;20443;-58
2022/05/27 00:56:51;;;;;;;1.53;1.20;;;20.90;42.40;;;;;;5024000;28;20510;-58
2022/05/27 00:59:38;;;;;;;1.30;1.20;;;20.90;42.40;;;;;;5025137;28;20452;-58
2022/05/27 01:02:03;;;;;;;1.30;1.20;;;20.90;42.40;;;;;;5023798;28;20438;-58
2022/05/27 01:04:31;;;;;;;1.33;1.10;;;20.90;42.50;;;;;;5025185;28;20448;-58
2022/05/27 01:06:56;;;;;;;1.33;1.23;;;20.90;42.50;;;;;;5021427;28;20219;-58
2022/05/27 01:09:23;;;;;;;1.30;1.17;;;20.90;42.60;;;;;;5025858;28;20433;-58
2022/05/27 01:12:06;;;;;;;1.40;1.30;;;20.90;42.50;;;;;;5019785;28;20237;-58
2022/05/27 01:15:19;;;;;;;1.60;1.13;;;21.00;42.60;;;;;;5019816;28;20460;-58
2022/05/27 01:17:49;;;;;;;1.93;0.93;;;20.90;42.50;;;;;;5013771;28;21019;-58
2022/05/27 01:20:42;;;;;;;1.27;1.20;;;20.90;42.50;;;;;;5021750;28;20994;-58
2022/05/27 01:23:22;;;;;;;1.30;1.20;;;20.90;42.40;;;;;;5019109;28;20464;-58
2022/05/27 01:26:06;;;;;;;1.20;1.10;;;20.90;42.50;;;;;;5017568;28;20432;-58
2022/05/27 01:29:09;;;;;;;1.30;1.20;;;20.90;42.40;;;;;;5024288;28;21044;-57
2022/05/27 01:31:40;;;;;;;1.27;1.17;;;20.90;42.40;;;;;;5026103;28;20809;-58
2022/05/27 01:34:37;;;;;;;2.07;1.40;;;20.90;42.40;;;;;;5022801;28;20556;-58
2022/05/27 01:37:33;;;;;;;1.30;1.20;;;20.90;42.40;;;;;;5024957;28;20822;-58
2022/05/27 01:40:24;;;;;;;1.77;1.20;;;20.90;42.60;;;;;;5019578;28;20439;-58
2022/05/27 01:43:05;;;;;;;1.37;1.27;;;20.90;42.40;;;;;;5021624;28;20453;-58
2022/05/27 01:45:43;;;;;;;1.23;1.13;;;21.00;42.40;;;;;;5023301;28;20760;-58
2022/05/27 01:48:23;;;;;;;1.20;1.10;;;20.90;42.30;;;;;;5019326;28;20457;-58
2022/05/27 01:51:01;;;;;;;1.47;1.37;;;20.90;42.30;;;;;;5024861;28;20452;-58
2022/05/27 01:53:40;;;;;;;1.60;1.23;;;20.90;42.30;;;;;;5020599;28;20449;-58
2022/05/27 01:56:12;;;;;;;2.27;1.00;;;20.90;42.30;;;;;;5019200;28;20456;-58
2022/05/27 01:59:05;;;;;;;1.30;1.20;;;20.90;42.40;;;;;;5020297;28;20459;-58
2022/05/27 02:01:37;;;;;;;1.10;1.00;;;20.90;42.30;;;;;;5005236;28;20452;-58
2022/05/27 02:04:38;;;;;;;1.10;1.00;;;21.00;42.50;;;;;;5020126;28;20863;-58
2022/05/27 02:07:11;;;;;;;1.20;1.10;;;20.90;42.40;;;;;;5009011;28;20414;-58
2022/05/27 02:10:01;;;;;;;1.10;1.00;;;20.90;42.40;;;;;;5021203;28;20446;-58
2022/05/27 02:12:33;;;;;;;1.20;1.10;;;20.90;42.40;;;;;;5020724;28;20472;-57
2022/05/27 02:15:28;;;;;;;0.90;0.90;;;20.90;42.40;;;;;;5026046;28;20522;-58
2022/05/27 02:18:00;;;;;;;0.90;0.90;;;20.90;42.40;;;;;;5021670;28;20509;-58
2022/05/27 02:20:35;;;;;;;1.63;1.20;;;20.90;42.40;;;;;;5022648;28;20992;-58
2022/05/27 02:23:11;;;;;;;1.20;1.10;;;20.90;42.40;;;;;;5020181;28;20502;-58
2022/05/27 02:25:41;;;;;;;1.43;1.20;;;20.90;42.40;;;;;;5021496;28;20452;-58
2022/05/27 02:28:22;;;;;;;1.40;1.10;;;20.90;42.40;;;;;;5017544;28;20446;-58
2022/05/27 02:30:52;;;;;;;1.40;1.30;;;20.90;42.30;;;;;;5020102;28;20460;-58
2022/05/27 02:36:20;;;;;;;4.03;1.30;;;20.90;42.40;;;;;;5021637;28;20843;-58
2022/05/27 02:38:48;;;;;;;1.50;1.40;;;20.90;42.30;;;;;;5018809;28;20445;-58
2022/05/27 02:41:29;;;;;;;1.20;1.10;;;20.90;42.30;;;;;;5020423;28;20804;-58
2022/05/27 02:44:26;;;;;;;1.20;1.10;;;20.90;42.30;;;;;;5023296;28;20812;-58
2022/05/27 02:47:04;;;;;;;1.63;1.30;;;20.90;42.30;;;;;;5016791;28;20465;-57
2022/05/27 02:49:49;;;;;;;1.40;1.10;;;20.90;42.40;;;;;;5017449;28;20461;-58
2022/05/27 02:53:03;;;;;;;1.97;1.53;;;20.90;42.30;;;;;;5022880;28;20450;-58
2022/05/27 02:55:33;;;;;;;1.27;1.17;;;20.90;42.30;;;;;;5009736;28;20420;-58
2022/05/27 02:58:02;;;;;;;1.20;1.10;;;20.90;42.30;;;;;;5024569;28;20456;-58
2022/05/27 03:00:32;;;;;;;1.30;1.20;;;20.90;42.50;;;;;;5019252;28;20419;-58
2022/05/27 03:02:59;;;;;;;1.27;1.17;;;20.90;42.30;;;;;;5026904;28;20448;-57
2022/05/27 03:05:46;;;;;;;1.30;1.20;;;20.90;42.30;;;;;;5024080;28;20944;-58
2022/05/27 03:08:27;;;;;;;1.20;1.10;;;20.90;42.30;;;;;;5014359;28;20443;-58
2022/05/27 03:11:12;;;;;;;1.27;1.17;;;20.90;42.30;;;;;;5022191;28;20428;-58
2022/05/27 03:13:59;;;;;;;2.70;1.30;;;20.90;42.30;;;;;;5009584;28;20444;-58
2022/05/27 03:16:37;;;;;;;1.23;1.13;;;20.90;42.30;;;;;;5025913;28;20452;-57
2022/05/27 03:19:18;;;;;;;1.40;1.30;;;20.90;42.30;;;;;;5021985;28;20913;-58
2022/05/27 03:21:53;;;;;;;1.40;1.30;;;20.90;42.30;;;;;;5021700;28;20423;-58
2022/05/27 03:24:31;;;;;;;1.53;1.30;;;20.90;42.40;;;;;;5026262;28;20470;-58
2022/05/27 03:27:12;;;;;;;1.50;1.13;;;20.90;42.30;;;;;;5029361;28;20448;-58
2022/05/27 03:29:49;;;;;;;1.30;1.20;;;20.90;42.30;;;;;;5014715;28;20807;-58
2022/05/27 03:32:28;;;;;;;2.00;1.67;;;20.90;42.30;;;;;;5021272;28;20427;-58
2022/05/27 03:35:09;;;;;;;1.73;1.60;;;20.90;42.40;;;;;;5020911;28;20448;-58
2022/05/27 03:37:42;;;;;;;1.40;1.30;;;20.90;42.40;;;;;;5019355;28;20439;-58
2022/05/27 03:40:12;;;;;;;1.40;1.30;;;20.90;42.40;;;;;;5021158;28;20538;-58
2022/05/27 03:42:40;;;;;;;1.20;1.10;;;20.90;42.40;;;;;;5024231;28;20461;-58
2022/05/27 03:45:10;;;;;;;1.43;1.33;;;20.90;42.40;;;;;;5022752;28;20483;-58
2022/05/27 03:47:37;;;;;;;1.30;1.20;;;20.90;42.40;;;;;;5019394;28;20474;-58
2022/05/27 03:50:04;;;;;;;1.27;1.17;;;20.90;42.40;;;;;;5014438;28;20443;-58
2022/05/27 03:52:39;;;;;;;1.30;1.20;;;20.90;42.40;;;;;;5019447;28;20456;-59
2022/05/27 03:55:06;;;;;;;1.40;1.30;;;20.90;42.40;;;;;;5019072;28;20587;-58
2022/05/27 03:57:32;;;;;;;1.30;1.20;;;20.90;42.40;;;;;;5020041;28;20477;-58
2022/05/27 03:59:57;;;;;;;1.43;1.33;;;20.90;42.40;;;;;;5019361;28;20427;-58
2022/05/27 04:02:23;;;;;;;1.33;1.10;;;20.90;42.50;;;;;;5020058;28;20219;-58
2022/05/27 04:04:48;;;;;;;1.57;1.47;;;20.90;42.50;;;;;;5022870;28;20258;-58
2022/05/27 04:07:14;;;;;;;1.13;1.03;;;20.90;42.50;;;;;;5023297;28;20212;-58
2022/05/27 04:09:40;;;;;;;1.30;1.20;;;20.90;42.50;;;;;;5017979;28;20637;-58
2022/05/27 04:12:06;;;;;;;1.43;1.33;;;20.90;42.50;;;;;;5018600;28;20539;-58
2022/05/27 04:14:32;;;;;;;1.30;1.20;;;20.90;42.50;;;;;;5022590;28;20284;-58
2022/05/27 04:19:42;;;;;;;1.50;1.20;;;20.90;42.60;;;;;;5015985;28;20233;-58
2022/05/27 04:22:08;;;;;;;1.50;1.40;;;20.90;42.60;;;;;;5020192;28;20451;-58
2022/05/27 04:24:33;;;;;;;1.30;1.20;;;20.90;42.50;;;;;;5021987;28;20227;-58
2022/05/27 04:26:59;;;;;;;1.70;1.20;;;20.90;42.50;;;;;;5019709;28;20297;-58
2022/05/27 04:29:25;;;;;;;1.10;1.00;;;20.90;42.60;;;;;;5018528;28;20253;-58
2022/05/27 04:31:50;;;;;;;1.10;1.00;;;20.90;42.60;;;;;;5021653;28;20575;-58
2022/05/27 04:34:16;;;;;;;1.30;1.20;;;20.90;42.60;;;;;;5019560;28;20258;-58
2022/05/27 04:36:41;;;;;;;1.40;1.30;;;20.90;42.60;;;;;;5020284;28;20245;-58
2022/05/27 04:39:07;;;;;;;1.20;1.10;;;20.90;42.60;;;;;;5019169;28;20246;-58
2022/05/27 04:41:32;;;;;;;1.20;1.10;;;20.90;42.70;;;;;;5020657;28;20231;-60
2022/05/27 04:43:58;;;;;;;1.00;1.00;;;20.90;42.70;;;;;;5020126;28;20234;-59
2022/05/27 04:46:24;;;;;;;1.20;1.10;;;20.90;42.70;;;;;;5016608;28;20728;-58
2022/05/27 04:48:49;;;;;;;1.30;1.20;;;20.90;42.70;;;;;;5019873;28;20586;-58
2022/05/27 04:51:15;;;;;;;1.30;1.20;;;20.90;42.70;;;;;;5016671;28;20223;-58
2022/05/27 04:53:41;;;;;;;1.33;1.23;;;21.00;42.90;;;;;;5026538;28;20231;-58
2022/05/27 04:56:09;;;;;;;1.20;1.10;;;20.90;42.70;;;;;;5020381;28;20232;-58
2022/05/27 04:58:34;;;;;;;1.10;1.00;;;20.90;42.80;;;;;;5019058;28;20302;-58
2022/05/27 05:01:00;;;;;;;1.23;1.13;;;21.00;42.90;;;;;;5024553;28;20521;-58
2022/05/27 05:03:26;;;;;;;1.40;1.30;;;20.90;42.90;;;;;;5022151;28;20238;-58
2022/05/27 05:05:51;;;;;;;1.20;1.10;;;21.00;43.00;;;;;;5014239;28;20230;-58
2022/05/27 05:08:29;;;;;;;1.10;1.00;;;20.90;43.00;;;;;;5019543;28;20802;-59
2022/05/27 05:10:55;;;;;;;1.30;1.20;;;21.00;43.00;;;;;;5021539;28;20238;-59
2022/05/27 05:13:20;;;;;;;1.20;1.10;;;20.90;43.00;;;;;;5016835;28;20438;-58
2022/05/27 05:15:46;;;;;;;2.70;1.27;;;20.90;43.20;;;;;;5016988;28;20231;-58
2022/05/27 05:18:11;;;;;;;1.00;1.00;;;20.90;43.20;;;;;;5022684;28;20226;-58
2022/05/27 05:20:37;;;;;;;2.10;1.20;;;20.90;43.30;;;;;;4994504;28;20577;-58
2022/05/27 05:23:03;;;;;;;1.00;1.00;;;21.00;43.50;;;;;;5011486;28;20223;-58
2022/05/27 05:25:29;;;;;;;1.30;1.20;;;21.00;43.60;;;;;;5017477;28;21989;-59
2022/05/27 05:27:55;;;;;;;1.40;1.30;;;21.00;43.70;;;;;;5011839;28;20224;-58
2022/05/27 05:30:24;;;;;;;1.10;1.10;;;20.90;43.60;;;;;;5011031;28;20930;-58
2022/05/27 05:32:50;;;;;;;1.20;1.10;;;20.90;43.70;;;;;;5017676;28;20247;-59
2022/05/27 05:35:16;;;;;;;1.30;1.20;;;20.90;43.80;;;;;;5013976;28;20966;-59
2022/05/27 05:37:42;;;;;;;0.97;0.97;;;20.90;43.80;;;;;;5013169;28;21109;-59
2022/05/27 05:40:10;;;;;;;1.10;1.07;;;21.00;44.10;;;;;;5012313;28;20469;-58
2022/05/27 05:42:36;;;;;;;1.10;1.00;;;20.90;43.90;;;;;;5018750;28;20231;-58
2022/05/27 05:45:03;;;;;;;1.23;1.13;;;21.00;44.10;;;;;;5019051;28;20973;-58
2022/05/27 05:47:30;;;;;;;1.20;1.10;;;20.90;44.10;;;;;;5022431;28;20437;-58
2022/05/27 05:49:55;;;;;;;1.13;1.03;;;20.90;44.20;;;;;;5024481;28;20444;-58
2022/05/27 05:52:21;;;;;;;1.30;1.20;;;20.90;44.20;;;;;;5023923;28;21030;-58
2022/05/27 05:54:46;;;;;;;1.20;1.10;;;20.90;44.30;;;;;;5019985;28;20230;-59
2022/05/27 05:57:12;;;;;;;1.90;0.90;;;20.90;44.30;;;;;;5019532;28;20603;-59
2022/05/27 05:59:38;;;;;;;2.10;1.20;;;20.90;44.30;;;;;;5021050;28;20230;-60
2022/05/27 06:02:05;;;;;;;1.30;1.10;;;20.90;44.30;;;;;;5015507;28;20680;-58
2022/05/27 06:04:31;;;;;;;1.20;1.10;;;20.90;44.30;;;;;;5022100;28;20444;-58
2022/05/27 06:06:57;;;;;;;1.30;1.20;;;21.00;44.40;;;;;;5026298;28;21199;-57
2022/05/27 06:09:25;;;;;;;1.00;1.00;;;21.00;44.30;;;;;;5020099;28;20255;-58
2022/05/27 06:11:55;;;;;;;1.87;1.77;;;21.00;44.30;;;;;;5021908;28;20445;-58
2022/05/27 06:14:21;;;;;;;1.57;1.47;;;21.00;44.40;;;;;;5019708;28;20477;-58
2022/05/27 06:16:47;;;;;;;2.73;1.97;;;21.00;44.30;;;;;;5021889;28;21072;-59
2022/05/27 06:19:12;;;;;;;5.03;4.00;;;21.00;44.40;;;;;;5028261;28;20699;-61
2022/05/27 06:21:38;;;;;;;2.77;2.10;;;21.00;44.50;;;;;;5021471;28;20456;-58
2022/05/27 06:24:04;;;;;;;2.70;2.50;;;21.00;44.50;;;;;;5017585;28;20220;-58
2022/05/27 06:26:30;;;;;;;3.47;3.23;;;21.10;44.60;;;;;;5023219;28;20231;-58
2022/05/27 06:34:24;;;;;;;13.80;9.30;;;21.00;44.20;;;;;;5021049;28;20591;-57
2022/05/27 06:37:04;;;;;;;32.83;16.30;;;21.00;44.20;;;;;;5025240;28;20453;-56
2022/05/27 06:39:33;;;;;;;16.60;9.97;;;21.00;44.20;;;;;;5017361;28;20905;-58
2022/05/27 06:41:59;;;;;;;7.17;6.40;;;21.00;44.10;;;;;;5021946;28;20461;-56
2022/05/27 06:44:25;;;;;;;9.10;6.10;;;21.00;44.20;;;;;;5021677;28;20461;-56
2022/05/27 06:46:51;;;;;;;14.03;6.87;;;21.00;44.20;;;;;;5021364;28;20453;-56
2022/05/27 06:49:18;;;;;;;9.73;6.33;;;21.00;44.30;;;;;;5021251;28;20216;-56
2022/05/27 06:51:45;;;;;;;13.73;7.77;;;21.00;44.30;;;;;;5026826;28;20865;-56
2022/05/27 06:54:11;;;;;;;8.87;6.53;;;21.00;44.40;;;;;;5023988;28;20946;-56
2022/05/27 06:56:38;;;;;;;7.73;6.10;;;21.00;44.50;;;;;;5016716;28;20449;-56
2022/05/27 06:59:05;;;;;;;11.17;7.23;;;21.00;44.50;;;;;;5025717;28;20457;-56
2022/05/27 07:01:30;;;;;;;12.10;8.37;;;21.00;44.60;;;;;;5023462;28;20483;-57
2022/05/27 07:03:57;;;;;;;9.50;7.43;;;21.00;44.60;;;;;;5023029;28;20460;-56
2022/05/27 07:06:28;;;;;;;14.00;8.20;;;21.00;44.60;;;;;;5021550;28;20222;-56
2022/05/27 07:08:54;;;;;;;9.27;7.70;;;21.00;44.70;;;;;;5018067;28;20482;-57
2022/05/27 07:11:20;;;;;;;9.00;7.33;;;21.00;44.70;;;;;;5022226;28;20480;-56
2022/05/27 07:13:45;;;;;;;11.40;8.23;;;21.00;44.80;;;;;;5019605;28;20264;-56
2022/05/27 07:16:11;;;;;;;9.53;7.73;;;21.00;44.80;;;;;;5019754;28;20219;-56
2022/05/27 07:18:36;;;;;;;9.33;8.10;;;21.00;44.80;;;;;;5016782;28;20736;-56
2022/05/27 07:21:04;;;;;;;10.70;8.63;;;21.00;44.80;;;;;;5022171;28;20231;-56
2022/05/27 07:23:30;;;;;;;15.00;9.30;;;21.00;44.90;;;;;;5024051;28;20234;-57
2022/05/27 07:25:56;;;;;;;14.03;9.20;;;21.00;44.70;;;;;;5019933;28;20888;-56
2022/05/27 07:28:22;;;;;;;10.60;7.70;;;21.00;44.50;;;;;;5020382;28;20538;-56
2022/05/27 07:30:48;;;;;;;13.47;8.07;;;21.00;44.40;;;;;;5022760;28;20219;-57
2022/05/27 07:33:14;;;;;;;14.10;8.60;;;21.00;44.50;;;;;;5019602;28;20954;-58
2022/05/27 07:35:40;;;;;;;11.80;8.73;;;21.00;44.50;;;;;;5025860;28;20219;-57
2022/05/27 07:38:05;;;;;;;13.70;7.90;;;21.00;44.60;;;;;;5017655;28;20226;-56
2022/05/27 07:40:31;;;;;;;9.63;7.93;;;21.00;44.70;;;;;;5019010;28;20228;-57
2022/05/27 07:42:56;;;;;;;11.53;8.23;;;21.00;44.70;;;;;;5022412;28;20223;-56
2022/05/27 07:45:26;;;;;;;10.40;8.90;;;21.00;44.80;;;;;;5016768;28;20271;-56
2022/05/27 07:47:53;;;;;;;12.20;8.57;;;21.00;44.80;;;;;;5021621;28;20234;-56
2022/05/27 07:50:20;;;;;;;11.20;8.90;;;21.00;44.90;;;;;;5021757;28;20544;-56
2022/05/27 07:52:46;;;;;;;11.07;8.53;;;21.00;44.90;;;;;;5021167;28;20479;-56
2022/05/27 07:55:12;;;;;;;10.80;8.20;;;21.00;45.00;;;;;;5017776;28;20487;-56
2022/05/27 07:57:43;;;;;;;13.70;8.53;;;21.00;45.00;;;;;;5022385;28;20484;-56
2022/05/27 08:00:12;;;;;;;10.80;8.50;;;21.00;45.00;;;;;;5022496;28;20228;-56
2022/05/27 08:02:38;;;;;;;10.43;8.73;;;20.90;45.00;;;;;;5020536;28;20522;-56
2022/05/27 08:05:04;;;;;;;10.00;8.13;;;21.00;45.10;;;;;;5022897;28;20437;-56
2022/05/27 08:07:30;;;;;;;13.83;8.97;;;20.90;45.10;;;;;;5020532;28;20441;-57
2022/05/27 08:09:55;;;;;;;9.40;8.40;;;21.00;45.20;;;;;;5019559;28;20464;-60
2022/05/27 08:12:21;;;;;;;9.80;7.80;;;21.00;45.20;;;;;;5017113;28;20318;-56
2022/05/27 08:14:48;;;;;;;11.10;7.30;;;20.90;45.30;;;;;;5018733;28;21066;-57
2022/05/27 08:17:13;;;;;;;8.73;7.27;;;20.90;45.30;;;;;;5022293;28;20278;-56
2022/05/27 08:19:39;;;;;;;11.87;8.20;;;20.90;45.40;;;;;;5013537;28;20838;-57
2022/05/27 08:22:05;;;;;;;10.13;7.93;;;20.90;45.40;;;;;;5019304;28;20302;-57
2022/05/27 08:24:30;;;;;;;11.57;7.60;;;20.90;45.50;;;;;;5013964;28;20655;-57
2022/05/27 08:26:56;;;;;;;9.40;7.47;;;21.00;45.60;;;;;;5020893;28;20216;-57
2022/05/27 08:29:21;;;;;;;9.57;7.20;;;20.90;45.50;;;;;;5016739;28;20220;-58
2022/05/27 08:31:47;;;;;;;9.00;6.90;;;21.00;45.60;;;;;;5021520;28;20306;-56
2022/05/27 08:39:46;;;;;;;6.87;6.27;;;20.90;45.50;;;;;;5019614;28;20903;-56
2022/05/27 08:42:36;;;;;;;11.87;7.13;;;20.90;45.50;;;;;;5019705;28;20448;-56
2022/05/27 08:45:26;;;;;;;10.50;7.30;;;20.90;45.50;;;;;;5019275;28;20472;-57
2022/05/27 08:48:05;;;;;;;7.13;6.43;;;20.90;45.50;;;;;;5020834;28;21022;-59
2022/05/27 08:50:38;;;;;;;7.30;5.80;;;20.90;45.50;;;;;;5024190;28;20450;-58
2022/05/27 08:53:18;;;;;;;9.70;6.10;;;20.90;45.50;;;;;;5025291;28;20485;-58
2022/05/27 09:01:40;;;;;;;11.80;6.27;;;20.90;45.50;;;;;;5024462;28;20986;-57
2022/05/27 09:04:27;;;;;;;7.50;5.90;;;20.90;45.50;;;;;;5019413;28;20534;-57
2022/05/27 09:07:02;;;;;;;7.90;5.70;;;20.90;45.40;;;;;;5022669;28;20770;-58
2022/05/27 09:09:30;;;;;;;9.60;5.37;;;20.90;45.50;;;;;;5024449;28;20436;-58
2022/05/27 09:12:04;;;;;;;9.07;6.47;;;20.90;45.50;;;;;;5027101;28;20452;-58
2022/05/27 09:14:31;;;;;;;6.63;5.20;;;20.90;46.20;;;;;;5024211;28;20553;-57
2022/05/27 09:17:14;;;;;;;6.40;5.70;;;20.90;45.50;;;;;;5022351;28;20556;-57
2022/05/27 09:19:52;;;;;;;5.73;4.47;;;20.90;45.50;;;;;;5024224;28;20460;-57
2022/05/27 09:22:29;;;;;;;6.53;5.73;;;20.90;45.50;;;;;;5019847;28;20603;-57
2022/05/27 09:25:22;;;;;;;6.40;5.60;;;20.90;45.50;;;;;;5026684;28;20465;-57
2022/05/27 09:28:15;;;;;;;5.57;5.00;;;20.90;45.50;;;;;;5024168;28;20463;-58
2022/05/27 09:30:42;;;;;;;6.60;4.83;;;20.90;45.50;;;;;;5020608;28;20981;-57
2022/05/27 09:33:10;;;;;;;5.37;4.87;;;20.90;45.50;;;;;;5016011;28;20491;-57
2022/05/27 09:35:51;;;;;;;5.33;4.20;;;20.90;45.50;;;;;;5024951;28;20456;-57
2022/05/27 09:38:24;;;;;;;4.67;4.20;;;20.90;45.50;;;;;;5022341;28;20479;-57
2022/05/27 09:40:58;;;;;;;3.50;3.30;;;20.90;45.50;;;;;;5023452;28;20808;-57
2022/05/27 09:43:41;;;;;;;5.23;4.60;;;20.90;45.50;;;;;;5023086;28;20443;-58
2022/05/27 09:46:24;;;;;;;4.60;4.20;;;20.90;45.50;;;;;;5023729;28;20457;-57
2022/05/27 09:48:50;;;;;;;4.90;4.50;;;20.90;45.50;;;;;;5021507;28;20482;-58
2022/05/27 09:51:18;;;;;;;4.80;4.30;;;20.90;45.50;;;;;;5019114;28;20457;-57
2022/05/27 09:53:48;;;;;;;7.00;5.30;;;20.90;45.50;;;;;;5025942;28;20239;-57
2022/05/27 09:56:16;;;;;;;4.13;3.83;;;20.90;45.50;;;;;;5018103;28;20639;-57
2022/05/27 09:58:44;;;;;;;5.90;4.30;;;20.90;45.50;;;;;;5023022;28;20450;-58
2022/05/27 10:01:28;;;;;;;6.77;3.70;;;20.90;45.50;;;;;;5023413;28;20511;-57
2022/05/27 10:04:06;;;;;;;4.30;3.90;;;20.90;45.50;;;;;;5018386;28;20461;-57
2022/05/27 10:06:34;;;;;;;4.27;3.97;;;20.90;45.50;;;;;;5023252;28;20468;-57
2022/05/27 10:09:05;;;;;;;4.30;4.00;;;20.90;45.50;;;;;;5021003;28;20426;-57
2022/05/27 10:11:32;;;;;;;3.83;3.53;;;20.90;45.50;;;;;;5018820;28;20448;-57
2022/05/27 10:14:07;;;;;;;3.70;3.37;;;20.90;45.50;;;;;;5024744;28;20448;-57
2022/05/27 10:16:34;;;;;;;4.50;4.10;;;20.90;45.50;;;;;;5017543;28;20428;-57
2022/05/27 10:19:10;;;;;;;3.53;3.23;;;20.90;45.50;;;;;;5022651;28;20946;-57
2022/05/27 10:22:04;;;;;;;4.17;3.87;;;20.90;45.40;;;;;;5020254;28;20475;-57
2022/05/27 10:24:34;;;;;;;4.47;4.07;;;20.90;45.50;;;;;;5019053;28;20453;-57
2022/05/27 10:27:11;;;;;;;3.73;3.40;;;20.90;45.50;;;;;;5022010;28;20477;-57
2022/05/27 10:29:50;;;;;;;4.03;3.73;;;20.90;45.50;;;;;;5021851;28;20453;-57
2022/05/27 10:32:38;;;;;;;3.53;3.33;;;20.80;45.40;;;;;;5020511;28;20837;-58
2022/05/27 10:35:06;;;;;;;3.43;3.13;;;20.80;45.40;;;;;;5022354;28;20462;-59
2022/05/27 10:37:44;;;;;;;4.20;3.40;;;20.90;45.50;;;;;;5025702;28;20464;-58
2022/05/27 10:40:19;;;;;;;3.93;3.73;;;20.80;45.40;;;;;;5022294;28;20452;-57
2022/05/27 10:43:11;;;;;;;4.20;3.90;;;20.80;45.40;;;;;;5022092;28;20556;-57
2022/05/27 10:45:50;;;;;;;3.30;3.03;;;20.90;45.50;;;;;;5020848;28;20457;-57
2022/05/27 10:48:40;;;;;;;4.10;3.37;;;20.80;45.40;;;;;;5023400;28;20424;-57
2022/05/27 10:51:31;;;;;;;3.23;3.03;;;20.90;45.50;;;;;;5021609;28;20428;-57
2022/05/27 10:54:36;;;;;;;3.00;2.80;;;20.90;45.50;;;;;;5019090;28;20542;-57
2022/05/27 11:03:25;;;;;;;3.13;2.83;;;20.80;45.40;;;;;;5020578;28;20461;-57
2022/05/27 11:06:16;;;;;;;3.70;3.33;;;20.80;45.40;;;;;;5018492;28;20458;-57
2022/05/27 11:09:00;;;;;;;3.43;3.13;;;20.80;45.40;;;;;;5020732;28;20456;-57
2022/05/27 11:11:56;;;;;;;3.00;2.80;;;20.80;45.40;;;;;;5017570;28;20442;-57
2022/05/27 11:15:10;;;;;;;3.90;2.83;;;20.80;45.40;;;;;;5012919;28;20469;-57
2022/05/27 11:17:54;;;;;;;2.70;2.50;;;20.80;45.40;;;;;;5020303;28;20546;-58
2022/05/27 11:20:35;;;;;;;3.20;2.40;;;20.80;45.40;;;;;;5020732;28;20531;-58
2022/05/27 11:23:33;;;;;;;2.73;2.53;;;20.80;45.40;;;;;;5023066;28;20928;-59
2022/05/27 11:26:32;;;;;;;3.63;3.33;;;20.80;45.40;;;;;;5017883;28;20467;-57
2022/05/27 11:29:16;;;;;;;3.73;2.60;;;20.80;45.40;;;;;;5015499;28;20441;-57
2022/05/27 11:31:52;;;;;;;2.53;2.30;;;20.80;45.30;;;;;;5018576;28;21238;-57
2022/05/27 11:34:28;;;;;;;3.10;2.90;;;20.80;45.30;;;;;;5020316;28;21201;-57
2022/05/27 11:36:59;;;;;;;2.37;2.23;;;20.80;45.40;;;;;;5018878;28;20495;-58
2022/05/27 11:39:50;;;;;;;2.73;2.53;;;20.80;45.40;;;;;;5019261;28;20801;-57
2022/05/27 11:42:38;;;;;;;3.50;2.60;;;20.80;45.40;;;;;;5017398;28;20469;-57
2022/05/27 11:45:13;;;;;;;2.60;2.33;;;20.80;45.40;;;;;;5020390;28;20464;-57
2022/05/27 11:47:55;;;;;;;2.50;2.40;;;20.80;45.40;;;;;;5021511;28;20796;-57
2022/05/27 11:50:40;;;;;;;2.40;2.30;;;20.80;45.40;;;;;;5020452;28;20903;-57
2022/05/27 11:53:26;;;;;;;2.83;2.63;;;20.80;45.40;;;;;;5012796;28;20552;-57
2022/05/27 11:56:39;;;;;;;2.70;2.50;;;20.80;45.40;;;;;;5015181;28;20442;-57
2022/05/27 11:59:16;;;;;;;2.77;2.57;;;20.80;45.40;;;;;;4967326;28;20471;-58
2022/05/27 12:01:43;;;;;;;2.37;2.27;;;20.80;45.40;;;;;;4963785;28;20768;-57
2022/05/27 12:04:14;;;;;;;4.93;2.20;;;20.80;45.30;;;;;;4996688;28;20453;-57
2022/05/27 12:06:56;;;;;;;2.10;2.00;;;20.80;45.40;;;;;;5017940;28;20507;-57
2022/05/27 12:09:32;;;;;;;3.10;2.37;;;20.80;45.40;;;;;;5018059;28;20420;-57
2022/05/27 12:12:07;;;;;;;2.73;2.53;;;20.80;45.40;;;;;;5018667;28;20533;-57
2022/05/27 12:14:40;;;;;;;2.50;2.30;;;20.80;45.40;;;;;;5018815;28;20857;-56
2022/05/27 12:17:11;;;;;;;3.23;2.87;;;20.80;45.40;;;;;;5020484;28;21029;-57
2022/05/27 12:19:41;;;;;;;2.20;2.10;;;20.80;45.40;;;;;;5017858;28;20445;-56
2022/05/27 12:22:09;;;;;;;2.80;2.60;;;20.80;45.40;;;;;;5017092;28;20817;-57
2022/05/27 12:24:45;;;;;;;3.17;2.87;;;20.80;45.40;;;;;;5028662;28;20452;-57
2022/05/27 12:27:14;;;;;;;2.93;2.70;;;20.80;45.40;;;;;;5022320;28;20501;-57
2022/05/27 12:29:42;;;;;;;3.13;2.80;;;20.80;45.40;;;;;;5024055;28;20436;-58
2022/05/27 12:32:09;;;;;;;2.67;2.47;;;20.80;45.40;;;;;;5026511;28;20483;-57
2022/05/27 12:34:37;;;;;;;2.80;2.60;;;20.80;45.40;;;;;;5026734;28;20427;-58
2022/05/27 12:37:16;;;;;;;2.87;2.67;;;20.80;45.40;;;;;;5028333;28;20513;-58
2022/05/27 12:39:44;;;;;;;2.90;2.70;;;20.80;45.40;;;;;;5022574;28;20423;-57
2022/05/27 12:42:12;;;;;;;2.50;2.40;;;20.80;45.40;;;;;;5022343;28;20939;-57
2022/05/27 12:44:38;;;;;;;3.03;2.70;;;20.80;46.10;;;;;;5026612;28;20455;-58
2022/05/27 12:47:05;;;;;;;3.13;2.87;;;20.80;45.40;;;;;;5026750;28;20444;-60
2022/05/27 12:49:33;;;;;;;2.37;2.27;;;20.80;45.40;;;;;;5021020;28;20445;-57
2022/05/27 12:52:00;;;;;;;2.67;2.57;;;20.80;45.40;;;;;;5021211;28;20414;-57
2022/05/27 12:54:45;;;;;;;2.67;2.47;;;20.80;45.40;;;;;;5017923;28;20477;-57
2022/05/27 13:03:07;;;;;;;2.73;2.53;;;20.80;45.40;;;;;;5017727;28;20855;-57
2022/05/27 13:06:12;;;;;;;2.63;2.43;;;20.80;45.40;;;;;;5021348;28;20422;-57
2022/05/27 13:09:00;;;;;;;2.87;2.67;;;20.80;45.30;;;;;;5026640;28;20307;-58
2022/05/27 13:11:35;;;;;;;2.57;2.37;;;20.80;45.40;;;;;;5022866;28;20424;-57
2022/05/27 13:14:03;;;;;;;5.73;3.07;;;20.80;45.40;;;;;;5019412;28;20471;-57
2022/05/27 13:17:03;;;;;;;2.23;2.00;;;20.80;45.40;;;;;;5018282;28;20420;-58
2022/05/27 13:19:36;;;;;;;2.23;2.13;;;20.80;45.30;;;;;;5022611;28;20422;-57
2022/05/27 13:22:10;;;;;;;2.50;2.40;;;20.80;45.40;;;;;;5024201;28;20418;-57
2022/05/27 13:24:38;;;;;;;2.30;2.20;;;20.80;46.20;;;;;;5020040;28;20800;-57
2022/05/27 13:27:28;;;;;;;2.50;2.30;;;20.80;45.30;;;;;;5023268;28;20445;-57
2022/05/27 13:29:53;;;;;;;2.30;2.20;;;20.80;45.40;;;;;;5016143;28;20432;-60
2022/05/27 13:32:26;;;;;;;2.30;2.20;;;20.80;45.30;;;;;;5020535;28;20482;-58
2022/05/27 13:35:12;;;;;;;2.70;2.50;;;20.80;45.40;;;;;;5022598;28;20270;-58
2022/05/27 13:37:37;;;;;;;2.40;2.30;;;20.80;45.40;;;;;;5023509;28;20424;-58
2022/05/27 13:40:24;;;;;;;1.87;1.77;;;20.80;45.50;;;;;;5022190;28;20507;-57
2022/05/27 13:42:52;;;;;;;2.63;2.43;;;20.80;45.40;;;;;;5020749;28;20329;-57
2022/05/27 13:45:21;;;;;;;2.60;2.33;;;20.80;45.40;;;;;;5031026;28;20529;-57
2022/05/27 13:47:51;;;;;;;2.33;2.23;;;20.80;45.40;;;;;;5023429;28;20933;-57
2022/05/27 13:50:38;;;;;;;2.50;2.30;;;20.80;45.40;;;;;;5020050;28;21239;-57